Latest Weather Observations for Centre Island

IDD60801

Issued at 12:05 pm CST Sunday 26 October 2014 (issued every 30 minutes, with the page automatically refreshed every 10 minutes)

About weather observations | Map of weather stations | Latest weather observations for NT | Other Formats
Station Details ID: 014703 Name: CENTRE ISLAND Lat: -15.74 Lon: 136.82 Height: 12.2 m
Data from the previous 72 hours. | See also: Recent months at Centre Island
Date/Time
CST
Temp
°C
App
Temp
°C
Dew
Point
Rel
Hum
%
Delta-T
°C
Wind Press
QNH
hPa
Press
MSL
hPa
Rain
since 9 am
mm
Dir
 
Spd
km/h
Gust
km/h
Spd
kts
Gust
kts
26/12:00pm 32.0 31.2 19.3 47 8.3 NE 22 30 12 16 1014.1 1014.0 0.0
26/11:30am 32.7 32.6 18.8 43 9.1 NE 17 24 9 13 1014.3 1014.2 0.0
26/11:00am 30.5 31.5 19.5 51 7.2 NE 13 19 7 10 1014.5 1014.4 0.0
26/10:30am 30.2 32.2 21.6 60 5.8 E 13 15 7 8 1014.8 1014.7 0.0
26/10:00am 29.4 32.5 22.1 65 4.9 SE 9 11 5 6 1014.9 1014.8 0.0
26/09:30am 27.9 30.6 21.4 67 4.3 SE 9 11 5 6 1015.2 1015.1 0.0
26/09:00am 27.8 31.0 21.6 69 4.1 SE 7 11 4 6 1015.3 1015.2 0.0
26/08:30am 27.3 30.2 21.8 72 3.7 S 9 13 5 7 1015.2 1015.1 0.0
26/08:00am 26.9 29.7 22.3 76 3.1 SSW 11 13 6 7 1014.9 1014.8 0.0
26/07:30am 26.4 29.2 21.6 75 3.2 SSW 9 13 5 7 1014.7 1014.6 0.0
26/07:00am 25.6 28.6 21.9 80 2.5 SSW 9 13 5 7 1014.3 1014.2 0.0
26/06:30am 24.1 27.5 22.0 88 1.4 WSW 7 13 4 7 1013.9 1013.8 0.0
26/06:00am 23.5 27.0 21.8 90 1.1 W 6 9 3 5 1013.7 1013.6 0.0
26/05:30am 23.9 26.9 22.0 89 1.3 WNW 9 11 5 6 1013.4 1013.3 0.0
26/05:00am 24.1 26.9 21.6 86 1.7 WNW 9 11 5 6 1013.1 1013.0 0.0
26/04:30am 24.0 27.0 21.9 88 1.4 W 9 11 5 6 1012.8 1012.7 0.0
26/04:00am 23.5 26.6 21.0 86 1.6 W 6 7 3 4 1012.6 1012.5 0.0
26/03:30am 23.5 26.2 20.6 84 1.9 WNW 7 7 4 4 1012.5 1012.4 0.0
26/03:00am 23.7 25.8 20.2 81 2.3 NW 9 11 5 6 1012.6 1012.5 0.0
26/02:30am 23.5 25.7 20.4 83 2.0 WNW 9 13 5 7 1012.7 1012.6 0.0
26/02:00am 23.5 25.8 20.6 84 1.9 WNW 9 11 5 6 1012.9 1012.8 0.0
26/01:30am 23.6 26.0 20.9 85 1.8 WNW 9 11 5 6 1013.2 1013.1 0.0
26/01:00am 24.2 26.9 21.3 84 1.9 NW 9 11 5 6 1013.6 1013.5 0.0
26/12:30am 24.5 26.9 20.8 80 2.4 N 9 9 5 5 1013.7 1013.6 0.0
26/12:00am 25.1 27.6 21.0 78 2.7 N 9 15 5 8 1014.0 1013.9 0.0
 
Date/Time
CST
Temp
°C
App
Temp
°C
Dew
Point
Rel
Hum
%
Delta-T
°C
Wind Press
QNH
hPa
Press
MSL
hPa
Rain
since 9 am
mm
Dir
 
Spd
km/h
Gust
km/h
Spd
kts
Gust
kts
25/11:30pm 26.0 27.4 21.0 74 3.3 N 15 19 8 10 1014.3 1014.2 0.0
25/11:00pm 26.0 27.5 21.2 75 3.2 NNE 15 22 8 12 1014.7 1014.6 0.0
25/10:30pm 26.0 27.1 21.2 75 3.2 NE 17 22 9 12 1014.9 1014.8 0.0
25/10:00pm 26.3 26.8 21.1 73 3.4 NE 20 24 11 13 1015.1 1015.0 0.0
25/09:30pm 26.4 26.8 20.9 72 3.6 ENE 20 26 11 14 1015.0 1014.9 0.0
25/09:00pm 26.6 27.2 21.1 72 3.6 NE 19 22 10 12 1014.6 1014.5 0.0
25/08:30pm 26.6 27.6 21.1 72 3.6 NE 17 20 9 11 1014.2 1014.1 0.0
25/08:00pm 26.7 27.4 21.2 72 3.6 NE 19 22 10 12 1014.1 1014.0 0.0
25/07:30pm 26.8 27.6 20.6 69 4.1 NNE 17 20 9 11 1014.0 1013.9 0.0
25/07:00pm 27.0 27.8 21.3 71 3.8 NNE 19 26 10 14 1013.7 1013.6 0.0
25/06:30pm 27.0 27.3 20.8 69 4.1 NNE 20 28 11 15 1013.4 1013.3 0.0
25/06:00pm 27.6 28.1 20.9 67 4.4 NNE 19 24 10 13 1013.4 1013.3 0.0
25/05:30pm 28.1 28.2 21.1 65 4.7 NNE 22 30 12 16 1013.2 1013.1 0.0
25/05:00pm 28.9 29.3 21.7 65 4.8 NNE 22 30 12 16 1013.2 1013.1 0.0
25/04:30pm 29.4 29.7 21.6 63 5.2 NNE 22 32 12 17 1013.1 1013.0 0.0
25/04:00pm 29.8 29.3 21.5 61 5.6 NNE 26 32 14 17 1013.1 1013.0 0.0
25/03:30pm 30.6 31.4 22.5 62 5.5 NNE 22 30 12 16 1013.3 1013.2 0.0
25/03:00pm 31.3 32.4 22.3 58 6.1 NNE 20 30 11 16 1013.5 1013.4 0.0
25/02:30pm 31.4 32.7 21.6 56 6.6 NNE 17 24 9 13 1013.9 1013.8 0.0
25/02:00pm 31.4 32.2 21.3 55 6.8 NNE 19 24 10 13 1014.2 1014.1 0.0
25/01:30pm 31.7 32.1 20.9 52 7.2 NNE 20 26 11 14 1014.5 1014.4 0.0
25/01:00pm 31.5 32.1 21.1 54 7.0 NE 19 22 10 12 1014.8 1014.7 0.0
25/12:30pm 31.3 31.7 20.6 53 7.1 NE 19 24 10 13 1015.4 1015.3 0.0
25/12:00pm 30.6 30.8 20.5 54 6.7 NE 20 24 11 13 1015.7 1015.6 0.0
25/11:30am 29.7 31.5 20.3 57 6.2 SE 11 15 6 8 1016.1 1016.0 0.0
25/11:00am 28.9 30.2 20.1 59 5.8 SE 13 15 7 8 1016.5 1016.4 0.0
25/10:30am 28.9 31.4 21.1 62 5.2 SE 9 13 5 7 1016.6 1016.5 0.0
25/10:00am 28.2 30.4 20.5 63 5.1 SE 9 11 5 6 1016.6 1016.5 0.0
25/09:30am 27.9 30.4 21.0 66 4.6 SE 9 11 5 6 1016.7 1016.6 0.0
25/09:00am 27.4 29.5 21.0 68 4.2 ESE 11 15 6 8 1016.7 1016.6 0.0
25/08:30am 27.1 28.2 21.2 70 3.9 ESE 17 20 9 11 1016.9 1016.8 0.0
25/08:00am 26.7 27.7 21.7 74 3.3 SE 19 22 10 12 1016.8 1016.7 0.0
25/07:30am 26.0 27.5 21.2 75 3.2 S 15 19 8 10 1015.9 1015.8 0.0
25/07:00am 24.9 26.5 21.4 81 2.3 SSW 15 20 8 11 1015.0 1014.9 0.0
25/06:30am 24.4 26.0 21.5 84 1.9 SSW 15 19 8 10 1014.4 1014.3 0.0
25/06:00am 23.7 25.4 21.6 88 1.4 SW 15 17 8 9 1014.0 1013.9 0.0
25/05:30am 23.6 26.3 22.2 92 0.9 SW 11 15 6 8 1013.6 1013.5 0.0
25/05:00am 22.9 25.5 21.2 90 1.1 WNW 9 11 5 6 1013.4 1013.3 0.0
25/04:30am 23.6 26.4 21.5 88 1.4 WNW 9 13 5 7 1013.2 1013.1 0.0
25/04:00am 24.5 26.7 21.8 85 1.8 WSW 13 17 7 9 1013.1 1013.0 0.0
25/03:30am 24.5 25.8 21.6 84 1.9 WSW 17 20 9 11 1012.7 1012.6 0.0
25/03:00am 25.1 27.7 22.6 86 1.7 WSW 13 20 7 11 1012.6 1012.5 0.0
25/02:30am 23.8 26.8 21.9 89 1.3 WSW 9 13 5 7 1012.7 1012.6 0.0
25/02:00am 23.2 25.9 20.7 86 1.6 W 7 9 4 5 1012.9 1012.8 0.0
25/01:30am 23.2 26.0 20.5 85 1.8 WSW 6 7 3 4 1013.5 1013.4 0.0
25/01:00am 23.5 26.4 21.0 86 1.6 NW 7 9 4 5 1013.6 1013.5 0.0
25/12:30am 23.4 26.3 20.7 85 1.8 NNW 6 7 3 4 1014.1 1014.0 0.0
25/12:00am 23.6 26.4 20.5 83 2.0 NNW 6 7 3 4 1014.4 1014.3 0.0
 
Date/Time
CST
Temp
°C
App
Temp
°C
Dew
Point
Rel
Hum
%
Delta-T
°C
Wind Press
QNH
hPa
Press
MSL
hPa
Rain
since 9 am
mm
Dir
 
Spd
km/h
Gust
km/h
Spd
kts
Gust
kts
24/11:30pm 24.0 26.1 20.1 79 2.5 NNW 9 11 5 6 1014.5 1014.4 0.0
24/11:00pm 24.9 27.6 20.6 77 2.8 NNW 7 9 4 5 1014.7 1014.6 0.0
24/10:30pm 25.7 27.7 20.7 74 3.3 NNE 11 13 6 7 1015.0 1014.9 0.0
24/10:00pm 25.7 26.7 20.3 72 3.5 NNE 15 20 8 11 1015.0 1014.9 0.0
24/09:30pm 25.9 26.6 20.5 72 3.5 ENE 17 22 9 12 1015.1 1015.0 0.0
24/09:00pm 26.2 26.1 20.7 71 3.6 ENE 22 28 12 15 1015.1 1015.0 0.0
24/08:30pm 26.3 26.0 21.1 73 3.4 ENE 24 30 13 16 1014.7 1014.6 0.0
24/08:00pm 26.5 25.9 20.6 70 3.9 ENE 24 30 13 16 1014.2 1014.1 0.0
24/07:30pm 26.5 26.7 21.3 73 3.4 NE 22 30 12 16 1013.8 1013.7 0.0
24/07:00pm 26.6 26.8 21.4 73 3.5 ENE 22 28 12 15 1013.4 1013.3 0.0
24/06:30pm 26.9 27.1 21.4 72 3.7 NE 22 30 12 16 1013.0 1012.9 0.0
24/06:00pm 27.4 27.5 21.2 69 4.1 NNE 22 28 12 15 1012.8 1012.7 0.0
24/05:30pm 28.1 28.8 21.6 68 4.4 NNE 20 26 11 14 1012.4 1012.3 0.0
24/05:00pm 28.7 29.1 21.7 66 4.7 NNE 22 30 12 16 1012.3 1012.2 0.0
24/04:30pm 29.3 29.7 21.8 64 5.0 NNE 22 30 12 16 1012.3 1012.2 0.0
24/04:00pm 30.1 30.6 21.2 59 6.0 NNE 20 28 11 15 1012.4 1012.3 0.0
24/03:30pm 30.3 30.2 20.8 56 6.3 NNE 22 30 12 16 1012.8 1012.7 0.0
24/03:00pm 30.8 31.0 21.3 57 6.4 NNE 22 32 12 17 1013.0 1012.9 0.0
24/02:30pm 30.5 30.7 22.1 61 5.7 NNE 24 32 13 17 1013.3 1013.2 0.0
24/02:00pm 30.0 30.0 21.7 61 5.6 NE 24 35 13 19 1013.7 1013.6 0.0
24/01:30pm 31.2 31.1 21.4 56 6.6 NNE 24 33 13 18 1014.1 1014.0 0.0
24/01:00pm 31.9 32.4 22.0 55 6.7 NNE 22 30 12 16 1014.6 1014.5 0.0
24/12:30pm 32.5 33.2 22.3 55 7.0 NNE 22 30 12 16 1015.1 1015.0 0.0
24/12:00pm 31.1 30.4 21.0 55 6.8 NE 26 33 14 18 1015.5 1015.4 0.0
24/11:30am 31.0 29.6 21.2 56 6.6 NE 30 35 16 19 1015.8 1015.7 0.0
24/11:00am 30.7 29.9 20.9 56 6.5 ENE 26 32 14 17 1015.9 1015.8 0.0
24/10:30am 31.5 31.6 21.1 54 7.0 ENE 22 30 12 16 1015.9 1015.8 0.0
24/10:00am 30.9 30.2 20.2 53 7.1 ENE 24 30 13 16 1016.1 1016.0 0.0
24/09:30am 29.7 31.1 21.9 63 5.3 ESE 17 20 9 11 1016.3 1016.2 0.0
24/09:00am 28.2 30.0 21.2 65 4.7 E 13 17 7 9 1016.2 1016.1 0.0
24/08:30am 27.7 29.8 21.7 70 4.0 ESE 13 15 7 8 1015.9 1015.8 0.0
24/08:00am 26.9 28.2 21.6 72 3.5 ESE 17 20 9 11 1015.9 1015.8 0.0
24/07:30am 25.9 27.0 21.3 76 3.0 SSW 17 20 9 11 1014.7 1014.6 0.0
24/07:00am 25.2 26.0 21.3 79 2.6 S 19 24 10 13 1014.4 1014.3 0.0
24/06:30am 25.0 26.3 21.7 82 2.2 SSW 17 20 9 11 1014.0 1013.9 0.0
24/06:00am 24.5 25.8 21.6 84 1.9 SW 17 20 9 11 1013.6 1013.5 0.0
24/05:30am 24.5 26.2 21.6 84 1.9 WSW 15 19 8 10 1013.3 1013.2 0.0
24/05:00am 24.7 26.5 21.8 84 1.9 WSW 15 19 8 10 1013.0 1012.9 0.0
24/04:30am 24.5 26.7 21.8 85 1.8 SW 13 17 7 9 1012.8 1012.7 0.0
24/04:00am 24.3 27.5 22.4 89 1.3 W 9 11 5 6 1012.6 1012.5 0.0
24/03:30am 23.8 27.1 21.5 87 1.5 W 6 9 3 5 1012.5 1012.4 0.0
24/03:00am 23.4 26.4 20.9 86 1.6 WNW 6 7 3 4 1012.5 1012.4 0.0
24/02:30am 23.5 26.6 21.0 86 1.6 WNW 6 7 3 4 1012.8 1012.7 0.0
24/02:00am 23.9 27.0 21.0 84 1.9 WNW 6 7 3 4 1013.1 1013.0 0.0
24/01:30am 23.9 26.7 20.8 83 2.0 NW 7 9 4 5 1013.3 1013.2 0.0
24/01:00am 23.9 26.6 20.6 82 2.2 NW 7 7 4 4 1013.7 1013.6 0.0
24/12:30am 24.4 26.6 20.3 78 2.7 NNW 9 11 5 6 1014.0 1013.9 0.0
24/12:00am 25.0 27.6 20.5 76 2.9 N 7 9 4 5 1014.3 1014.2 0.0
 
Date/Time
CST
Temp
°C
App
Temp
°C
Dew
Point
Rel
Hum
%
Delta-T
°C
Wind Press
QNH
hPa
Press
MSL
hPa
Rain
since 9 am
mm
Dir
 
Spd
km/h
Gust
km/h
Spd
kts
Gust
kts
23/11:30pm 26.0 28.3 20.6 72 3.5 NNE 9 15 5 8 1014.5 1014.4 0.0
23/11:00pm 26.4 27.2 20.7 71 3.7 NE 17 20 9 11 1014.6 1014.5 0.0
23/10:30pm 26.4 27.7 20.9 72 3.6 NNE 15 20 8 11 1014.8 1014.7 0.0
23/10:00pm 26.5 28.0 21.3 73 3.4 NNE 15 20 8 11 1014.7 1014.6 0.0
23/09:30pm 26.3 27.2 20.8 71 3.6 NE 17 20 9 11 1014.4 1014.3 0.0
23/09:00pm 26.2 27.8 20.7 71 3.6 NE 13 17 7 9 1014.3 1014.2 0.0
23/08:30pm 26.4 27.1 20.5 70 3.9 ENE 17 20 9 11 1014.1 1014.0 0.0
23/08:00pm 26.4 26.5 20.0 68 4.2 ENE 19 22 10 12 1013.9 1013.8 0.0
23/07:30pm 26.7 26.4 19.6 65 4.6 ENE 20 28 11 15 1013.7 1013.6 0.0
23/07:00pm 26.9 26.0 19.8 65 4.6 ENE 24 30 13 16 1013.3 1013.2 0.0
23/06:30pm 27.1 27.1 21.6 72 3.7 ENE 24 28 13 15 1013.0 1012.9 0.0
23/06:00pm 27.5 27.7 22.0 72 3.7 ENE 24 30 13 16 1012.7 1012.6 0.0
23/05:30pm 28.1 27.9 22.1 70 4.0 NE 26 33 14 18 1012.3 1012.2 0.0
23/05:00pm 28.5 27.6 21.5 66 4.7 NE 28 33 15 18 1012.0 1011.9 0.0
23/04:30pm 29.2 28.9 21.9 64 4.9 NE 26 35 14 19 1012.0 1011.9 0.0
23/04:00pm 29.5 28.8 22.5 66 4.8 NE 30 37 16 20 1012.0 1011.9 0.0
23/03:30pm 30.1 29.6 22.8 65 5.0 NE 30 39 16 21 1012.1 1012.0 0.0
23/03:00pm 30.9 31.3 22.5 61 5.7 NE 24 32 13 17 1012.4 1012.3 0.0
23/02:30pm 30.5 30.7 21.3 58 6.2 NE 22 30 12 16 1012.8 1012.7 0.0
23/02:00pm 31.8 33.0 22.5 58 6.4 NNE 20 28 11 15 1013.1 1013.0 0.0
23/01:30pm 31.9 32.3 21.7 54 6.9 NNE 22 30 12 16 1013.3 1013.2 0.0
23/01:00pm 32.0 32.7 21.5 53 7.1 NNE 20 26 11 14 1013.6 1013.5 0.0
23/12:30pm 31.3 31.4 21.8 57 6.4 NE 24 30 13 16 1013.9 1013.8 0.0

Other Formats:

Comma delimited format used in spreadsheet applications
http://www.bom.gov.au/fwo/IDD60801/IDD60801.94248.axf

JavaScript Object Notation format (JSON) in row-major order
http://www.bom.gov.au/fwo/IDD60801/IDD60801.94248.json